sensor_id;sensor_type;location;lat;lon;timestamp;pressure;altitude;pressure_sealevel;temperature;humidity
44140;BME280;29803;51.048;4.686;2023-04-04T00:00:12;102841.19;;;1.65;100.00
44140;BME280;29803;51.048;4.686;2023-04-04T00:02:43;102841.34;;;1.61;100.00
44140;BME280;29803;51.048;4.686;2023-04-04T00:05:13;102831.84;;;1.57;100.00
44140;BME280;29803;51.048;4.686;2023-04-04T00:07:45;102825.91;;;1.50;100.00
44140;BME280;29803;51.048;4.686;2023-04-04T00:10:16;102819.16;;;1.43;100.00
44140;BME280;29803;51.048;4.686;2023-04-04T00:12:46;102829.03;;;1.38;100.00
44140;BME280;29803;51.048;4.686;2023-04-04T00:15:17;102822.13;;;1.34;100.00
44140;BME280;29803;51.048;4.686;2023-04-04T00:17:47;102823.16;;;1.29;100.00
44140;BME280;29803;51.048;4.686;2023-04-04T00:20:18;102825.94;;;1.26;100.00
44140;BME280;29803;51.048;4.686;2023-04-04T00:22:48;102828.78;;;1.20;100.00
44140;BME280;29803;51.048;4.686;2023-04-04T00:25:19;102829.03;;;1.14;100.00
44140;BME280;29803;51.048;4.686;2023-04-04T00:27:49;102832.75;;;1.09;100.00
44140;BME280;29803;51.048;4.686;2023-04-04T00:30:20;102833.78;;;1.04;100.00
44140;BME280;29803;51.048;4.686;2023-04-04T00:32:51;102826.84;;;1.02;100.00
44140;BME280;29803;51.048;4.686;2023-04-04T00:35:21;102827.94;;;0.96;100.00
44140;BME280;29803;51.048;4.686;2023-04-04T00:37:52;102830.69;;;0.93;100.00
44140;BME280;29803;51.048;4.686;2023-04-04T00:40:22;102834.31;;;0.91;100.00
44140;BME280;29803;51.048;4.686;2023-04-04T00:42:53;102830.91;;;0.87;100.00
44140;BME280;29803;51.048;4.686;2023-04-04T00:45:25;102843.44;;;0.82;100.00
44140;BME280;29803;51.048;4.686;2023-04-04T00:47:57;102843.75;;;0.73;100.00
44140;BME280;29803;51.048;4.686;2023-04-04T00:50:28;102848.41;;;0.66;100.00
44140;BME280;29803;51.048;4.686;2023-04-04T00:52:59;102853.88;;;0.60;100.00
44140;BME280;29803;51.048;4.686;2023-04-04T00:55:29;102853.06;;;0.58;100.00
44140;BME280;29803;51.048;4.686;2023-04-04T00:58:00;102845.22;;;0.57;100.00
44140;BME280;29803;51.048;4.686;2023-04-04T01:00:34;102856.63;;;0.57;100.00
44140;BME280;29803;51.048;4.686;2023-04-04T01:03:05;102865.41;;;0.58;100.00
44140;BME280;29803;51.048;4.686;2023-04-04T01:05:37;102861.91;;;0.57;100.00
44140;BME280;29803;51.048;4.686;2023-04-04T01:08:08;102873.28;;;0.59;100.00
44140;BME280;29803;51.048;4.686;2023-04-04T01:10:40;102868.84;;;0.60;100.00
44140;BME280;29803;51.048;4.686;2023-04-04T01:13:10;102868.00;;;0.59;100.00
44140;BME280;29803;51.048;4.686;2023-04-04T01:15:41;102862.72;;;0.59;100.00
44140;BME280;29803;51.048;4.686;2023-04-04T01:18:14;102863.63;;;0.58;100.00
44140;BME280;29803;51.048;4.686;2023-04-04T01:20:53;102860.91;;;0.61;100.00
44140;BME280;29803;51.048;4.686;2023-04-04T01:23:33;102862.69;;;0.61;100.00
44140;BME280;29803;51.048;4.686;2023-04-04T01:26:05;102860.03;;;0.61;100.00
44140;BME280;29803;51.048;4.686;2023-04-04T01:28:37;102858.28;;;0.60;100.00
44140;BME280;29803;51.048;4.686;2023-04-04T01:31:11;102855.81;;;0.55;100.00
44140;BME280;29803;51.048;4.686;2023-04-04T01:33:45;102863.03;;;0.50;100.00
44140;BME280;29803;51.048;4.686;2023-04-04T01:36:24;102856.16;;;0.46;100.00
44140;BME280;29803;51.048;4.686;2023-04-04T01:39:09;102851.88;;;0.42;100.00
44140;BME280;29803;51.048;4.686;2023-04-04T01:41:46;102856.31;;;0.40;100.00
44140;BME280;29803;51.048;4.686;2023-04-04T01:44:17;102845.81;;;0.38;100.00
44140;BME280;29803;51.048;4.686;2023-04-04T01:47:04;102845.88;;;0.37;100.00
44140;BME280;29803;51.048;4.686;2023-04-04T01:49:36;102860.00;;;0.36;100.00
44140;BME280;29803;51.048;4.686;2023-04-04T01:52:06;102857.47;;;0.33;100.00
44140;BME280;29803;51.048;4.686;2023-04-04T01:54:37;102848.78;;;0.29;100.00
44140;BME280;29803;51.048;4.686;2023-04-04T01:57:16;102855.06;;;0.25;100.00
44140;BME280;29803;51.048;4.686;2023-04-04T01:59:47;102848.13;;;0.22;100.00
44140;BME280;29803;51.048;4.686;2023-04-04T02:02:31;102849.06;;;0.20;100.00
44140;BME280;29803;51.048;4.686;2023-04-04T02:05:01;102848.28;;;0.18;100.00
44140;BME280;29803;51.048;4.686;2023-04-04T02:07:34;102858.91;;;0.15;100.00
44140;BME280;29803;51.048;4.686;2023-04-04T02:10:05;102850.28;;;0.10;100.00
44140;BME280;29803;51.048;4.686;2023-04-04T02:12:36;102853.09;;;0.05;100.00
44140;BME280;29803;51.048;4.686;2023-04-04T02:15:07;102847.97;;;0.01;100.00
44140;BME280;29803;51.048;4.686;2023-04-04T02:17:38;102853.38;;;-0.04;100.00
44140;BME280;29803;51.048;4.686;2023-04-04T02:20:09;102854.41;;;-0.08;100.00
44140;BME280;29803;51.048;4.686;2023-04-04T02:22:39;102848.28;;;-0.10;100.00
44140;BME280;29803;51.048;4.686;2023-04-04T02:25:10;102847.47;;;-0.12;100.00
44140;BME280;29803;51.048;4.686;2023-04-04T02:27:45;102852.81;;;-0.14;100.00
44140;BME280;29803;51.048;4.686;2023-04-04T02:30:16;102843.22;;;-0.16;100.00
44140;BME280;29803;51.048;4.686;2023-04-04T02:32:47;102845.97;;;-0.19;100.00
44140;BME280;29803;51.048;4.686;2023-04-04T02:35:18;102843.41;;;-0.22;100.00
44140;BME280;29803;51.048;4.686;2023-04-04T02:37:48;102846.97;;;-0.23;100.00
44140;BME280;29803;51.048;4.686;2023-04-04T02:40:18;102845.25;;;-0.24;100.00
44140;BME280;29803;51.048;4.686;2023-04-04T02:42:49;102840.97;;;-0.29;100.00
44140;BME280;29803;51.048;4.686;2023-04-04T02:45:20;102836.69;;;-0.33;100.00
44140;BME280;29803;51.048;4.686;2023-04-04T02:47:51;102831.56;;;-0.37;100.00
44140;BME280;29803;51.048;4.686;2023-04-04T02:50:21;102833.41;;;-0.41;100.00
44140;BME280;29803;51.048;4.686;2023-04-04T02:52:52;102824.66;;;-0.41;100.00
44140;BME280;29803;51.048;4.686;2023-04-04T02:55:24;102833.47;;;-0.42;100.00
44140;BME280;29803;51.048;4.686;2023-04-04T02:57:54;102827.34;;;-0.43;100.00
44140;BME280;29803;51.048;4.686;2023-04-04T03:00:24;102828.34;;;-0.47;100.00
44140;BME280;29803;51.048;4.686;2023-04-04T03:02:56;102819.66;;;-0.50;100.00
44140;BME280;29803;51.048;4.686;2023-04-04T03:05:26;102826.84;;;-0.56;100.00
44140;BME280;29803;51.048;4.686;2023-04-04T03:07:59;102830.56;;;-0.63;100.00
44140;BME280;29803;51.048;4.686;2023-04-04T03:10:29;102827.28;;;-0.69;100.00
44140;BME280;29803;51.048;4.686;2023-04-04T03:13:00;102830.91;;;-0.73;100.00
44140;BME280;29803;51.048;4.686;2023-04-04T03:15:30;102824.03;;;-0.79;100.00
44140;BME280;29803;51.048;4.686;2023-04-04T03:18:01;102825.84;;;-0.81;100.00
44140;BME280;29803;51.048;4.686;2023-04-04T03:20:32;102835.63;;;-0.85;100.00
44140;BME280;29803;51.048;4.686;2023-04-04T03:23:02;102836.56;;;-0.87;100.00
44140;BME280;29803;51.048;4.686;2023-04-04T03:25:33;102839.25;;;-0.89;100.00
44140;BME280;29803;51.048;4.686;2023-04-04T03:28:22;102840.19;;;-0.91;100.00
44140;BME280;29803;51.048;4.686;2023-04-04T03:30:52;102838.41;;;-0.89;100.00
44140;BME280;29803;51.048;4.686;2023-04-04T03:33:23;102848.88;;;-0.88;100.00
44140;BME280;29803;51.048;4.686;2023-04-04T03:35:53;102839.19;;;-0.87;100.00
44140;BME280;29803;51.048;4.686;2023-04-04T03:38:23;102846.06;;;-0.82;100.00
44140;BME280;29803;51.048;4.686;2023-04-04T03:41:11;102836.25;;;-0.76;100.00
44140;BME280;29803;51.048;4.686;2023-04-04T03:43:41;102826.53;;;-0.74;100.00
44140;BME280;29803;51.048;4.686;2023-04-04T03:46:12;102826.53;;;-0.74;100.00
44140;BME280;29803;51.048;4.686;2023-04-04T03:48:42;102827.47;;;-0.77;100.00
44140;BME280;29803;51.048;4.686;2023-04-04T03:51:13;102824.97;;;-0.80;100.00
44140;BME280;29803;51.048;4.686;2023-04-04T03:53:43;102836.50;;;-0.86;100.00
44140;BME280;29803;51.048;4.686;2023-04-04T03:56:14;102832.28;;;-0.91;100.00
44140;BME280;29803;51.048;4.686;2023-04-04T03:58:44;102838.59;;;-0.97;100.00
44140;BME280;29803;51.048;4.686;2023-04-04T04:01:15;102837.06;;;-1.04;100.00
44140;BME280;29803;51.048;4.686;2023-04-04T04:03:45;102837.13;;;-1.07;100.00
44140;BME280;29803;51.048;4.686;2023-04-04T04:06:16;102840.63;;;-1.07;100.00
44140;BME280;29803;51.048;4.686;2023-04-04T04:08:47;102844.03;;;-1.03;100.00
44140;BME280;29803;51.048;4.686;2023-04-04T04:11:17;102838.78;;;-1.03;100.00
44140;BME280;29803;51.048;4.686;2023-04-04T04:13:48;102843.97;;;-1.00;100.00
44140;BME280;29803;51.048;4.686;2023-04-04T04:16:18;102844.78;;;-0.98;100.00
44140;BME280;29803;51.048;4.686;2023-04-04T04:18:49;102842.19;;;-0.99;100.00
44140;BME280;29803;51.048;4.686;2023-04-04T04:21:19;102837.69;;;-0.96;100.00
44140;BME280;29803;51.048;4.686;2023-04-04T04:23:50;102834.97;;;-0.93;100.00
44140;BME280;29803;51.048;4.686;2023-04-04T04:26:21;102844.56;;;-0.90;100.00
44140;BME280;29803;51.048;4.686;2023-04-04T04:28:51;102838.53;;;-0.94;100.00
44140;BME280;29803;51.048;4.686;2023-04-04T04:31:21;102832.53;;;-0.99;100.00
44140;BME280;29803;51.048;4.686;2023-04-04T04:33:52;102830.94;;;-1.06;100.00
44140;BME280;29803;51.048;4.686;2023-04-04T04:36:22;102828.50;;;-1.12;100.00
44140;BME280;29803;51.048;4.686;2023-04-04T04:38:53;102834.78;;;-1.18;100.00
44140;BME280;29803;51.048;4.686;2023-04-04T04:41:23;102835.84;;;-1.23;100.00
44140;BME280;29803;51.048;4.686;2023-04-04T04:43:55;102833.38;;;-1.29;100.00
44140;BME280;29803;51.048;4.686;2023-04-04T04:46:25;102833.50;;;-1.36;100.00
44140;BME280;29803;51.048;4.686;2023-04-04T04:48:56;102840.66;;;-1.41;100.00
44140;BME280;29803;51.048;4.686;2023-04-04T04:51:26;102846.91;;;-1.43;100.00
44140;BME280;29803;51.048;4.686;2023-04-04T04:53:57;102846.97;;;-1.46;100.00
44140;BME280;29803;51.048;4.686;2023-04-04T04:56:27;102847.94;;;-1.49;100.00
44140;BME280;29803;51.048;4.686;2023-04-04T04:58:58;102859.38;;;-1.50;100.00
44140;BME280;29803;51.048;4.686;2023-04-04T05:01:28;102861.19;;;-1.53;100.00
44140;BME280;29803;51.048;4.686;2023-04-04T05:03:59;102854.28;;;-1.58;100.00
44140;BME280;29803;51.048;4.686;2023-04-04T05:06:29;102855.25;;;-1.60;100.00
44140;BME280;29803;51.048;4.686;2023-04-04T05:09:00;102856.13;;;-1.61;100.00
44140;BME280;29803;51.048;4.686;2023-04-04T05:11:30;102857.03;;;-1.62;100.00
44140;BME280;29803;51.048;4.686;2023-04-04T05:14:01;102853.53;;;-1.63;100.00
44140;BME280;29803;51.048;4.686;2023-04-04T05:16:31;102859.66;;;-1.62;100.00
44140;BME280;29803;51.048;4.686;2023-04-04T05:19:02;102860.63;;;-1.66;100.00
44140;BME280;29803;51.048;4.686;2023-04-04T05:21:33;102852.75;;;-1.66;100.00
44140;BME280;29803;51.048;4.686;2023-04-04T05:24:03;102855.41;;;-1.68;100.00
44140;BME280;29803;51.048;4.686;2023-04-04T05:26:34;102863.38;;;-1.69;100.00
44140;BME280;29803;51.048;4.686;2023-04-04T05:29:04;102866.00;;;-1.69;100.00
44140;BME280;29803;51.048;4.686;2023-04-04T05:31:35;102860.75;;;-1.71;100.00
44140;BME280;29803;51.048;4.686;2023-04-04T05:34:05;102860.72;;;-1.69;100.00
44140;BME280;29803;51.048;4.686;2023-04-04T05:36:47;102856.22;;;-1.66;100.00
44140;BME280;29803;51.048;4.686;2023-04-04T05:39:17;102865.84;;;-1.63;100.00
44140;BME280;29803;51.048;4.686;2023-04-04T05:41:48;102862.13;;;-1.54;100.00
44140;BME280;29803;51.048;4.686;2023-04-04T05:44:18;102866.31;;;-1.47;100.00
44140;BME280;29803;51.048;4.686;2023-04-04T05:46:49;102871.28;;;-1.37;100.00
44140;BME280;29803;51.048;4.686;2023-04-04T05:49:19;102871.06;;;-1.27;100.00
44140;BME280;29803;51.048;4.686;2023-04-04T05:51:49;102872.53;;;-1.17;100.00
44140;BME280;29803;51.048;4.686;2023-04-04T05:54:21;102882.88;;;-1.10;100.00
44140;BME280;29803;51.048;4.686;2023-04-04T05:56:52;102884.44;;;-1.02;100.00
44140;BME280;29803;51.048;4.686;2023-04-04T05:59:22;102891.22;;;-0.94;100.00
44140;BME280;29803;51.048;4.686;2023-04-04T06:01:53;102894.47;;;-0.84;100.00
44140;BME280;29803;51.048;4.686;2023-04-04T06:04:23;102888.94;;;-0.75;100.00
44140;BME280;29803;51.048;4.686;2023-04-04T06:06:54;102898.75;;;-0.50;100.00
44140;BME280;29803;51.048;4.686;2023-04-04T06:09:25;102891.38;;;0.18;100.00
44140;BME280;29803;51.048;4.686;2023-04-04T06:11:55;102892.00;;;1.03;100.00
44140;BME280;29803;51.048;4.686;2023-04-04T06:14:26;102895.59;;;1.72;100.00
44140;BME280;29803;51.048;4.686;2023-04-04T06:16:57;102887.31;;;2.25;100.00
44140;BME280;29803;51.048;4.686;2023-04-04T06:19:27;102904.09;;;2.89;100.00
44140;BME280;29803;51.048;4.686;2023-04-04T06:21:58;102896.91;;;3.31;100.00
44140;BME280;29803;51.048;4.686;2023-04-04T06:24:28;102900.00;;;3.79;100.00
44140;BME280;29803;51.048;4.686;2023-04-04T06:26:58;102899.44;;;4.27;100.00
44140;BME280;29803;51.048;4.686;2023-04-04T06:29:29;102896.34;;;4.71;100.00
44140;BME280;29803;51.048;4.686;2023-04-04T06:32:00;102896.78;;;4.97;100.00
44140;BME280;29803;51.048;4.686;2023-04-04T06:34:31;102903.94;;;4.79;100.00
44140;BME280;29803;51.048;4.686;2023-04-04T06:37:01;102893.09;;;4.30;100.00
44140;BME280;29803;51.048;4.686;2023-04-04T06:39:32;102898.22;;;4.15;100.00
44140;BME280;29803;51.048;4.686;2023-04-04T06:42:03;102904.56;;;4.13;100.00
44140;BME280;29803;51.048;4.686;2023-04-04T06:44:34;102898.16;;;4.53;100.00
44140;BME280;29803;51.048;4.686;2023-04-04T06:47:04;102905.31;;;4.86;100.00
44140;BME280;29803;51.048;4.686;2023-04-04T06:49:34;102911.72;;;5.16;100.00
44140;BME280;29803;51.048;4.686;2023-04-04T06:52:05;102909.19;;;5.31;100.00
44140;BME280;29803;51.048;4.686;2023-04-04T06:54:36;102912.44;;;5.69;100.00
44140;BME280;29803;51.048;4.686;2023-04-04T06:57:07;102912.81;;;6.10;100.00
44140;BME280;29803;51.048;4.686;2023-04-04T06:59:37;102917.50;;;6.53;100.00
44140;BME280;29803;51.048;4.686;2023-04-04T07:02:07;102917.69;;;6.80;100.00
44140;BME280;29803;51.048;4.686;2023-04-04T07:04:38;102926.06;;;7.18;100.00
44140;BME280;29803;51.048;4.686;2023-04-04T07:07:10;102931.69;;;7.42;100.00
44140;BME280;29803;51.048;4.686;2023-04-04T07:09:41;102927.78;;;7.19;100.00
44140;BME280;29803;51.048;4.686;2023-04-04T07:12:11;102938.63;;;7.16;100.00
44140;BME280;29803;51.048;4.686;2023-04-04T07:14:42;102935.03;;;7.45;100.00
44140;BME280;29803;51.048;4.686;2023-04-04T07:17:12;102940.16;;;7.63;100.00
44140;BME280;29803;51.048;4.686;2023-04-04T07:19:43;102937.47;;;7.91;100.00
44140;BME280;29803;51.048;4.686;2023-04-04T07:22:13;102933.81;;;8.07;100.00
44140;BME280;29803;51.048;4.686;2023-04-04T07:24:44;102923.13;;;8.07;100.00
44140;BME280;29803;51.048;4.686;2023-04-04T07:27:17;102919.31;;;8.11;100.00
44140;BME280;29803;51.048;4.686;2023-04-04T07:29:47;102918.75;;;8.05;100.00
44140;BME280;29803;51.048;4.686;2023-04-04T07:32:18;102915.00;;;8.49;100.00
44140;BME280;29803;51.048;4.686;2023-04-04T07:34:48;102922.09;;;8.63;100.00
44140;BME280;29803;51.048;4.686;2023-04-04T07:37:19;102921.78;;;8.68;100.00
44140;BME280;29803;51.048;4.686;2023-04-04T07:39:51;102923.41;;;8.83;100.00
44140;BME280;29803;51.048;4.686;2023-04-04T07:42:22;102918.47;;;8.77;100.00
44140;BME280;29803;51.048;4.686;2023-04-04T07:44:52;102918.84;;;8.85;100.00
44140;BME280;29803;51.048;4.686;2023-04-04T07:47:23;102913.69;;;9.07;100.00
44140;BME280;29803;51.048;4.686;2023-04-04T07:49:53;102914.47;;;9.22;100.00
44140;BME280;29803;51.048;4.686;2023-04-04T07:52:23;102909.00;;;9.49;100.00
44140;BME280;29803;51.048;4.686;2023-04-04T07:54:54;102904.91;;;9.69;100.00
44140;BME280;29803;51.048;4.686;2023-04-04T07:57:25;102907.28;;;9.36;98.44
44140;BME280;29803;51.048;4.686;2023-04-04T07:59:55;102897.88;;;9.30;99.05
44140;BME280;29803;51.048;4.686;2023-04-04T08:02:26;102896.25;;;9.40;96.57
44140;BME280;29803;51.048;4.686;2023-04-04T08:04:56;102897.31;;;9.38;91.93
44140;BME280;29803;51.048;4.686;2023-04-04T08:07:27;102893.25;;;9.45;89.08
44140;BME280;29803;51.048;4.686;2023-04-04T08:09:57;102890.44;;;8.82;93.07
44140;BME280;29803;51.048;4.686;2023-04-04T08:12:28;102900.13;;;8.45;93.04
44140;BME280;29803;51.048;4.686;2023-04-04T08:14:58;102891.03;;;7.79;100.00
44140;BME280;29803;51.048;4.686;2023-04-04T08:17:29;102884.59;;;7.96;100.00
44140;BME280;29803;51.048;4.686;2023-04-04T08:19:59;102887.28;;;8.50;100.00
44140;BME280;29803;51.048;4.686;2023-04-04T08:22:30;102885.13;;;8.95;93.31
44140;BME280;29803;51.048;4.686;2023-04-04T08:25:00;102890.88;;;9.40;92.90
44140;BME280;29803;51.048;4.686;2023-04-04T08:27:31;102892.41;;;9.19;91.06
44140;BME280;29803;51.048;4.686;2023-04-04T08:30:02;102900.97;;;9.11;92.11
44140;BME280;29803;51.048;4.686;2023-04-04T08:32:33;102900.59;;;9.67;90.22
44140;BME280;29803;51.048;4.686;2023-04-04T08:35:04;102904.91;;;9.93;80.98
44140;BME280;29803;51.048;4.686;2023-04-04T08:37:35;102899.38;;;9.21;88.99
44140;BME280;29803;51.048;4.686;2023-04-04T08:40:06;102902.25;;;8.40;87.96
44140;BME280;29803;51.048;4.686;2023-04-04T08:42:39;102906.88;;;9.29;88.48
44140;BME280;29803;51.048;4.686;2023-04-04T08:45:11;102896.69;;;9.83;81.87
44140;BME280;29803;51.048;4.686;2023-04-04T08:47:42;102902.81;;;10.46;85.46
44140;BME280;29803;51.048;4.686;2023-04-04T08:50:13;102910.34;;;10.41;77.93
44140;BME280;29803;51.048;4.686;2023-04-04T08:52:45;102919.28;;;10.77;76.50
44140;BME280;29803;51.048;4.686;2023-04-04T08:55:16;102910.72;;;10.72;71.06
44140;BME280;29803;51.048;4.686;2023-04-04T08:57:47;102906.91;;;10.39;74.21
44140;BME280;29803;51.048;4.686;2023-04-04T09:00:18;102903.97;;;10.18;77.64
44140;BME280;29803;51.048;4.686;2023-04-04T09:03:09;102905.19;;;10.14;75.14
44140;BME280;29803;51.048;4.686;2023-04-04T09:05:43;102907.19;;;9.99;70.78
44140;BME280;29803;51.048;4.686;2023-04-04T09:08:15;102902.09;;;10.07;72.22
44140;BME280;29803;51.048;4.686;2023-04-04T09:10:48;102905.19;;;10.14;73.25
44140;BME280;29803;51.048;4.686;2023-04-04T09:13:18;102904.13;;;10.41;72.09
44140;BME280;29803;51.048;4.686;2023-04-04T09:15:51;102906.06;;;10.38;69.77
44140;BME280;29803;51.048;4.686;2023-04-04T09:18:23;102895.91;;;11.12;74.49
44140;BME280;29803;51.048;4.686;2023-04-04T09:20:53;102897.78;;;10.77;71.31
44140;BME280;29803;51.048;4.686;2023-04-04T09:23:24;102903.81;;;10.56;75.64
44140;BME280;29803;51.048;4.686;2023-04-04T09:25:54;102901.88;;;10.58;70.92
44140;BME280;29803;51.048;4.686;2023-04-04T09:28:26;102897.38;;;9.98;68.99
44140;BME280;29803;51.048;4.686;2023-04-04T09:30:59;102890.75;;;10.28;70.71
44140;BME280;29803;51.048;4.686;2023-04-04T09:33:31;102902.31;;;10.76;71.91
44140;BME280;29803;51.048;4.686;2023-04-04T09:36:05;102903.88;;;10.79;66.52
44140;BME280;29803;51.048;4.686;2023-04-04T09:38:39;102894.47;;;10.73;66.06
44140;BME280;29803;51.048;4.686;2023-04-04T09:41:14;102895.06;;;11.12;71.88
44140;BME280;29803;51.048;4.686;2023-04-04T09:43:45;102896.03;;;11.00;74.31
44140;BME280;29803;51.048;4.686;2023-04-04T09:46:34;102897.75;;;11.23;68.59
44140;BME280;29803;51.048;4.686;2023-04-04T09:49:25;102892.00;;;11.39;65.32
44140;BME280;29803;51.048;4.686;2023-04-04T09:51:55;102886.03;;;11.58;69.95
44140;BME280;29803;51.048;4.686;2023-04-04T09:54:26;102885.19;;;11.35;67.30
44140;BME280;29803;51.048;4.686;2023-04-04T09:56:56;102885.78;;;11.05;64.50
44140;BME280;29803;51.048;4.686;2023-04-04T09:59:27;102890.41;;;10.32;62.61
44140;BME280;29803;51.048;4.686;2023-04-04T10:02:00;102887.47;;;10.24;63.85
44140;BME280;29803;51.048;4.686;2023-04-04T10:04:31;102887.78;;;10.44;64.31
44140;BME280;29803;51.048;4.686;2023-04-04T10:07:04;102879.84;;;10.42;65.70
44140;BME280;29803;51.048;4.686;2023-04-04T10:09:36;102875.50;;;10.52;62.38
44140;BME280;29803;51.048;4.686;2023-04-04T10:12:09;102870.50;;;9.87;65.49
44140;BME280;29803;51.048;4.686;2023-04-04T10:14:39;102859.22;;;9.71;66.28
44140;BME280;29803;51.048;4.686;2023-04-04T10:17:10;102861.19;;;10.17;69.53
44140;BME280;29803;51.048;4.686;2023-04-04T10:19:41;102866.06;;;9.75;67.00
44140;BME280;29803;51.048;4.686;2023-04-04T10:22:13;102857.97;;;10.11;71.10
44140;BME280;29803;51.048;4.686;2023-04-04T10:24:44;102867.13;;;10.33;69.02
44140;BME280;29803;51.048;4.686;2023-04-04T10:27:15;102865.28;;;10.69;69.11
44140;BME280;29803;51.048;4.686;2023-04-04T10:29:46;102849.31;;;10.32;66.97
44140;BME280;29803;51.048;4.686;2023-04-04T10:32:22;102848.97;;;10.12;67.64
44140;BME280;29803;51.048;4.686;2023-04-04T10:34:59;102852.09;;;10.06;67.75
44140;BME280;29803;51.048;4.686;2023-04-04T10:37:36;102850.44;;;9.93;67.12
44140;BME280;29803;51.048;4.686;2023-04-04T10:40:30;102849.53;;;10.29;71.54
44140;BME280;29803;51.048;4.686;2023-04-04T10:43:04;102844.72;;;10.80;72.98
44140;BME280;29803;51.048;4.686;2023-04-04T10:45:35;102836.31;;;11.07;73.81
44140;BME280;29803;51.048;4.686;2023-04-04T10:48:09;102854.97;;;10.40;63.60
44140;BME280;29803;51.048;4.686;2023-04-04T10:50:40;102851.09;;;10.44;64.83
44140;BME280;29803;51.048;4.686;2023-04-04T10:53:11;102837.75;;;10.78;69.97
44140;BME280;29803;51.048;4.686;2023-04-04T10:55:41;102841.91;;;10.93;68.02
44140;BME280;29803;51.048;4.686;2023-04-04T10:58:13;102840.44;;;10.78;62.70
44140;BME280;29803;51.048;4.686;2023-04-04T11:00:58;102832.63;;;10.75;72.03
44140;BME280;29803;51.048;4.686;2023-04-04T11:03:32;102830.94;;;10.96;68.91
44140;BME280;29803;51.048;4.686;2023-04-04T11:06:22;102822.31;;;11.15;67.92
44140;BME280;29803;51.048;4.686;2023-04-04T11:08:54;102817.13;;;11.34;72.88
44140;BME280;29803;51.048;4.686;2023-04-04T11:11:25;102830.56;;;11.57;69.16
44140;BME280;29803;51.048;4.686;2023-04-04T11:13:58;102821.94;;;11.31;63.39
44140;BME280;29803;51.048;4.686;2023-04-04T11:16:44;102817.84;;;10.69;68.05
44140;BME280;29803;51.048;4.686;2023-04-04T11:19:15;102820.94;;;10.41;63.80
44140;BME280;29803;51.048;4.686;2023-04-04T11:21:49;102818.09;;;10.77;65.78
44140;BME280;29803;51.048;4.686;2023-04-04T11:24:20;102807.75;;;11.18;69.36
44140;BME280;29803;51.048;4.686;2023-04-04T11:26:53;102818.16;;;11.00;61.21
44140;BME280;29803;51.048;4.686;2023-04-04T11:29:48;102811.16;;;11.42;69.96
44140;BME280;29803;51.048;4.686;2023-04-04T11:35:27;102808.06;;;10.57;61.89
44140;BME280;29803;51.048;4.686;2023-04-04T11:37:58;102804.81;;;10.76;71.45
44140;BME280;29803;51.048;4.686;2023-04-04T11:43:43;102795.41;;;10.81;61.25
44140;BME280;29803;51.048;4.686;2023-04-04T11:46:16;102788.59;;;11.00;65.90
44140;BME280;29803;51.048;4.686;2023-04-04T11:48:47;102787.50;;;10.91;61.57
44140;BME280;29803;51.048;4.686;2023-04-04T11:51:17;102781.25;;;11.35;66.34
44140;BME280;29803;51.048;4.686;2023-04-04T11:53:48;102777.69;;;11.24;60.01
44140;BME280;29803;51.048;4.686;2023-04-04T11:56:18;102772.69;;;11.19;65.10
44140;BME280;29803;51.048;4.686;2023-04-04T11:58:50;102778.09;;;10.97;62.67
44140;BME280;29803;51.048;4.686;2023-04-04T12:01:20;102770.75;;;10.99;63.23
44140;BME280;29803;51.048;4.686;2023-04-04T12:03:51;102765.53;;;10.75;60.60
44140;BME280;29803;51.048;4.686;2023-04-04T12:06:22;102766.22;;;10.54;59.63
44140;BME280;29803;51.048;4.686;2023-04-04T12:08:53;102769.00;;;10.64;65.21
44140;BME280;29803;51.048;4.686;2023-04-04T12:11:24;102766.81;;;10.69;67.25
44140;BME280;29803;51.048;4.686;2023-04-04T12:13:56;102759.88;;;10.89;65.00
44140;BME280;29803;51.048;4.686;2023-04-04T12:16:27;102758.66;;;11.04;67.89
44140;BME280;29803;51.048;4.686;2023-04-04T12:19:00;102748.03;;;11.25;64.58
44140;BME280;29803;51.048;4.686;2023-04-04T12:21:31;102752.16;;;11.40;67.66
44140;BME280;29803;51.048;4.686;2023-04-04T12:24:02;102750.22;;;11.31;60.11
44140;BME280;29803;51.048;4.686;2023-04-04T12:26:35;102747.56;;;11.20;61.01
44140;BME280;29803;51.048;4.686;2023-04-04T12:29:08;102747.31;;;11.12;62.83
44140;BME280;29803;51.048;4.686;2023-04-04T12:31:42;102735.09;;;11.19;67.61
44140;BME280;29803;51.048;4.686;2023-04-04T12:34:32;102739.81;;;11.38;62.72
44140;BME280;29803;51.048;4.686;2023-04-04T12:37:03;102735.91;;;11.42;63.93
44140;BME280;29803;51.048;4.686;2023-04-04T12:39:33;102741.94;;;11.23;58.98
44140;BME280;29803;51.048;4.686;2023-04-04T12:42:04;102741.94;;;11.12;60.85
44140;BME280;29803;51.048;4.686;2023-04-04T12:44:36;102725.91;;;11.33;65.02
44140;BME280;29803;51.048;4.686;2023-04-04T12:47:08;102722.72;;;11.39;64.18
44140;BME280;29803;51.048;4.686;2023-04-04T12:49:44;102720.81;;;11.30;66.83
44140;BME280;29803;51.048;4.686;2023-04-04T12:52:17;102720.94;;;11.17;63.37
44140;BME280;29803;51.048;4.686;2023-04-04T12:54:49;102713.31;;;11.45;67.61
44140;BME280;29803;51.048;4.686;2023-04-04T12:57:23;102719.38;;;11.03;60.94
44140;BME280;29803;51.048;4.686;2023-04-04T12:59:54;102717.53;;;11.04;59.62
44140;BME280;29803;51.048;4.686;2023-04-04T13:02:25;102708.50;;;10.94;61.13
44140;BME280;29803;51.048;4.686;2023-04-04T13:04:57;102703.84;;;11.07;59.88
44140;BME280;29803;51.048;4.686;2023-04-04T13:07:29;102695.78;;;11.18;63.61
44140;BME280;29803;51.048;4.686;2023-04-04T13:10:03;102698.84;;;11.57;65.96
44140;BME280;29803;51.048;4.686;2023-04-04T13:12:53;102694.78;;;11.62;55.47
44140;BME280;29803;51.048;4.686;2023-04-04T13:18:35;102692.28;;;11.50;61.28
44140;BME280;29803;51.048;4.686;2023-04-04T13:21:08;102686.09;;;11.70;62.95